Time;durP1;ratioP1;P1;durP2;ratioP2;P2;SDS_P1;SDS_P2;PMS_P1;PMS_P2;Temp;Humidity;BMP_temperature;BMP_pressure;BME280_temperature;BME280_humidity;BME280_pressure;Samples;Min_cycle;Max_cycle;Signal;HPM_P1;HPM_P2
2022/04/14 00:01:58;;;;;;;41.97;34.33;;;;;;;;;;5282594;28;20374;-68
2022/04/14 00:04:29;;;;;;;39.88;35.63;;;;;;;;;;5281188;28;20035;-68
2022/04/14 00:07:01;;;;;;;41.60;35.85;;;;;;;;;;5282433;28;20008;-68
2022/04/14 00:09:35;;;;;;;40.00;34.95;;;;;;;;;;5281308;28;20020;-68
2022/04/14 00:12:06;;;;;;;38.30;32.63;;;;;;;;;;5281641;28;20012;-68
2022/04/14 00:14:38;;;;;;;42.22;37.15;;;;;;;;;;5281687;28;20086;-68
2022/04/14 00:17:09;;;;;;;37.80;33.53;;;;;;;;;;5281380;28;20166;-68
2022/04/14 00:19:40;;;;;;;35.92;32.22;;;;;;;;;;5281827;28;20135;-69
2022/04/14 00:22:11;;;;;;;37.78;33.65;;;;;;;;;;5282499;28;20020;-68
2022/04/14 00:24:42;;;;;;;38.70;34.60;;;;;;;;;;5281424;28;20021;-68
2022/04/14 00:27:16;;;;;;;34.83;31.00;;;;;;;;;;5282164;28;20254;-68
2022/04/14 00:29:48;;;;;;;37.75;33.25;;;;;;;;;;5281757;28;20796;-68
2022/04/14 00:32:19;;;;;;;36.50;32.63;;;;;;;;;;5281119;28;20040;-68
2022/04/14 00:34:50;;;;;;;39.13;34.85;;;;;;;;;;5282105;28;20095;-68
2022/04/14 00:37:21;;;;;;;38.97;34.78;;;;;;;;;;5281476;28;20265;-68
2022/04/14 00:39:52;;;;;;;34.95;31.08;;;;;;;;;;5281361;28;20659;-67
2022/04/14 00:42:24;;;;;;;39.28;35.05;;;;;;;;;;5281606;28;20757;-68
2022/04/14 00:44:55;;;;;;;37.97;34.00;;;;;;;;;;5281280;28;20060;-68
2022/04/14 00:47:28;;;;;;;38.35;34.15;;;;;;;;;;5281556;28;20092;-68
2022/04/14 00:49:59;;;;;;;39.22;34.45;;;;;;;;;;5281954;28;20039;-69
2022/04/14 00:52:30;;;;;;;40.00;35.35;;;;;;;;;;5280651;28;20024;-68
2022/04/14 00:55:02;;;;;;;38.88;34.92;;;;;;;;;;5281802;28;20040;-68
2022/04/14 00:57:33;;;;;;;42.47;35.95;;;;;;;;;;5281240;28;20059;-68
2022/04/14 01:00:05;;;;;;;37.63;33.65;;;;;;;;;;5281238;28;20434;-68
2022/04/14 01:02:36;;;;;;;41.22;34.78;;;;;;;;;;5281287;28;20067;-67
2022/04/14 01:05:09;;;;;;;40.55;36.22;;;;;;;;;;5281873;28;20027;-68
2022/04/14 01:07:42;;;;;;;39.58;35.33;;;;;;;;;;5280479;28;20596;-67
2022/04/14 01:10:13;;;;;;;41.58;37.15;;;;;;;;;;5282121;28;20017;-68
2022/04/14 01:12:44;;;;;;;44.55;36.40;;;;;;;;;;5281166;28;20036;-67
2022/04/14 01:15:15;;;;;;;40.05;35.80;;;;;;;;;;5280908;28;20040;-67
2022/04/14 01:17:46;;;;;;;40.15;35.65;;;;;;;;;;5281064;28;20471;-70
2022/04/14 01:20:18;;;;;;;41.03;36.78;;;;;;;;;;5281512;28;20040;-70
2022/04/14 01:22:56;;;;;;;39.10;34.97;;;;;;;;;;5285781;28;20037;-68
2022/04/14 01:25:28;;;;;;;41.33;36.85;;;;;;;;;;5285214;28;20020;-68
2022/04/14 01:27:59;;;;;;;41.10;36.20;;;;;;;;;;5285106;28;20494;-68
2022/04/14 01:30:30;;;;;;;40.47;36.15;;;;;;;;;;5284930;28;20095;-68
2022/04/14 01:33:02;;;;;;;39.55;35.20;;;;;;;;;;5285959;28;20370;-69
2022/04/14 01:35:33;;;;;;;41.05;36.47;;;;;;;;;;5284331;28;20092;-69
2022/04/14 01:38:04;;;;;;;39.95;35.63;;;;;;;;;;5285821;28;20467;-69
2022/04/14 01:40:35;;;;;;;40.55;35.15;;;;;;;;;;5285050;28;20251;-68
2022/04/14 01:43:06;;;;;;;43.90;35.92;;;;;;;;;;5284627;28;20340;-67
2022/04/14 01:45:38;;;;;;;41.80;35.88;;;;;;;;;;5285102;28;21324;-69
2022/04/14 01:48:09;;;;;;;40.20;34.55;;;;;;;;;;5284785;28;20388;-69
2022/04/14 01:50:40;;;;;;;42.50;37.25;;;;;;;;;;5284750;28;20517;-69
2022/04/14 01:53:11;;;;;;;40.20;35.63;;;;;;;;;;5285371;28;20346;-68
2022/04/14 01:55:42;;;;;;;42.60;36.67;;;;;;;;;;5283895;28;20259;-68
2022/04/14 01:58:14;;;;;;;42.58;35.55;;;;;;;;;;5285429;28;20032;-68
2022/04/14 02:00:45;;;;;;;41.65;35.33;;;;;;;;;;5284713;28;20028;-68
2022/04/14 02:03:16;;;;;;;40.08;35.75;;;;;;;;;;5284390;28;20043;-68
2022/04/14 02:05:47;;;;;;;46.65;37.17;;;;;;;;;;5284312;28;20357;-69
2022/04/14 02:08:18;;;;;;;42.70;36.20;;;;;;;;;;5284588;28;20267;-68
2022/04/14 02:10:49;;;;;;;42.35;36.28;;;;;;;;;;5284099;28;20263;-69
2022/04/14 02:13:20;;;;;;;44.15;37.20;;;;;;;;;;5283828;28;20295;-68
2022/04/14 02:15:52;;;;;;;39.83;34.55;;;;;;;;;;5283479;28;20379;-68
2022/04/14 02:18:23;;;;;;;41.63;37.05;;;;;;;;;;5282001;28;20063;-68
2022/04/14 02:20:54;;;;;;;43.05;37.00;;;;;;;;;;5283806;28;20664;-68
2022/04/14 02:23:25;;;;;;;42.35;37.53;;;;;;;;;;5282346;28;20029;-68
2022/04/14 02:25:56;;;;;;;43.00;37.40;;;;;;;;;;5283496;28;20271;-68
2022/04/14 02:28:27;;;;;;;48.80;39.55;;;;;;;;;;5282875;28;20025;-68
2022/04/14 02:30:59;;;;;;;42.08;33.42;;;;;;;;;;5282040;28;20347;-68
2022/04/14 02:33:30;;;;;;;43.47;37.00;;;;;;;;;;5282775;28;20032;-68
2022/04/14 02:36:01;;;;;;;40.08;35.50;;;;;;;;;;5283394;28;20027;-68
2022/04/14 02:38:32;;;;;;;45.70;36.63;;;;;;;;;;5281852;28;20020;-68
2022/04/14 02:41:04;;;;;;;43.13;37.05;;;;;;;;;;5283229;28;20463;-68
2022/04/14 02:43:37;;;;;;;45.67;37.70;;;;;;;;;;5282448;28;20037;-69
2022/04/14 02:46:08;;;;;;;46.13;38.20;;;;;;;;;;5282519;28;20611;-69
2022/04/14 02:48:39;;;;;;;48.80;38.38;;;;;;;;;;5282820;28;20024;-69
2022/04/14 02:51:11;;;;;;;50.22;39.58;;;;;;;;;;5282778;28;20100;-69
2022/04/14 02:53:42;;;;;;;42.72;36.25;;;;;;;;;;5281130;28;20255;-68
2022/04/14 02:56:13;;;;;;;42.28;35.00;;;;;;;;;;5282850;28;20039;-69
2022/04/14 02:58:46;;;;;;;42.28;37.47;;;;;;;;;;5281624;28;20259;-69
2022/04/14 03:01:17;;;;;;;46.40;38.22;;;;;;;;;;5282971;28;20008;-69
2022/04/14 03:03:48;;;;;;;48.33;39.05;;;;;;;;;;5281962;28;20036;-68
2022/04/14 03:06:19;;;;;;;46.97;38.03;;;;;;;;;;5281430;28;20635;-68
2022/04/14 03:08:50;;;;;;;46.22;36.70;;;;;;;;;;5282581;28;20053;-68
2022/04/14 03:11:21;;;;;;;49.20;39.33;;;;;;;;;;5282177;28;20263;-68
2022/04/14 03:13:53;;;;;;;48.00;39.13;;;;;;;;;;5246923;28;1008668;-68
2022/04/14 03:16:24;;;;;;;48.05;39.13;;;;;;;;;;5283038;28;20025;-67
2022/04/14 03:18:55;;;;;;;49.83;39.08;;;;;;;;;;5283422;28;20067;-68
2022/04/14 03:21:26;;;;;;;47.95;39.22;;;;;;;;;;5282321;28;20285;-68
2022/04/14 03:23:57;;;;;;;43.15;36.92;;;;;;;;;;5283481;28;20349;-68
2022/04/14 03:26:28;;;;;;;48.97;40.03;;;;;;;;;;5283014;28;20082;-68
2022/04/14 03:29:00;;;;;;;44.80;37.50;;;;;;;;;;5282585;28;20036;-69
2022/04/14 03:31:31;;;;;;;49.65;38.92;;;;;;;;;;5282593;28;20312;-69
2022/04/14 03:34:03;;;;;;;46.50;38.10;;;;;;;;;;5282549;28;20409;-68
2022/04/14 03:36:34;;;;;;;51.40;40.17;;;;;;;;;;5282774;28;20070;-69
2022/04/14 03:39:05;;;;;;;47.63;39.50;;;;;;;;;;5283220;28;20072;-67
2022/04/14 03:41:36;;;;;;;50.83;39.28;;;;;;;;;;5281851;28;20012;-69
2022/04/14 03:44:07;;;;;;;52.13;41.35;;;;;;;;;;5282102;28;20039;-70
2022/04/14 03:46:39;;;;;;;67.75;42.58;;;;;;;;;;5282564;28;20275;-68
2022/04/14 03:49:10;;;;;;;62.67;43.47;;;;;;;;;;5282010;28;20283;-69
2022/04/14 03:51:42;;;;;;;74.50;42.75;;;;;;;;;;5282371;28;20475;-68
2022/04/14 03:54:13;;;;;;;96.25;44.00;;;;;;;;;;5282743;28;20048;-69
2022/04/14 03:56:46;;;;;;;154.27;46.17;;;;;;;;;;5281460;28;20676;-68
2022/04/14 03:59:17;;;;;;;148.40;45.28;;;;;;;;;;5282753;28;20278;-68
2022/04/14 04:01:48;;;;;;;245.65;46.45;;;;;;;;;;5281340;28;20020;-67
2022/04/14 04:04:20;;;;;;;200.66;44.18;;;;;;;;;;5282302;28;20032;-67
2022/04/14 04:06:51;;;;;;;183.20;43.40;;;;;;;;;;5282193;28;20013;-67
2022/04/14 04:09:22;;;;;;;213.80;44.58;;;;;;;;;;5280965;28;20267;-68
2022/04/14 04:11:53;;;;;;;195.80;45.03;;;;;;;;;;5282460;28;20278;-68
2022/04/14 04:14:25;;;;;;;116.97;40.85;;;;;;;;;;5281571;28;20279;-68
2022/04/14 04:16:56;;;;;;;146.48;37.50;;;;;;;;;;5281618;28;20020;-69
2022/04/14 04:19:27;;;;;;;173.95;42.08;;;;;;;;;;5281559;28;20066;-68
2022/04/14 04:21:58;;;;;;;106.93;36.67;;;;;;;;;;5282314;28;20281;-68
2022/04/14 04:24:29;;;;;;;131.60;35.35;;;;;;;;;;5280727;28;20082;-68
2022/04/14 04:27:00;;;;;;;115.68;35.67;;;;;;;;;;5281965;28;20016;-68
2022/04/14 04:29:32;;;;;;;145.55;35.45;;;;;;;;;;5281590;28;20379;-68
2022/04/14 04:32:03;;;;;;;123.90;33.70;;;;;;;;;;5281172;28;20095;-68
2022/04/14 04:34:34;;;;;;;126.95;32.58;;;;;;;;;;5281496;28;20016;-68
2022/04/14 04:37:06;;;;;;;100.03;32.45;;;;;;;;;;5281298;28;20024;-68
2022/04/14 04:39:37;;;;;;;94.78;31.80;;;;;;;;;;5281178;28;20331;-69
2022/04/14 04:42:08;;;;;;;82.07;29.40;;;;;;;;;;5281699;28;20100;-68
2022/04/14 04:44:39;;;;;;;104.22;29.73;;;;;;;;;;5280622;28;20016;-68
2022/04/14 04:47:10;;;;;;;86.20;29.98;;;;;;;;;;5281734;28;20130;-68
2022/04/14 04:49:42;;;;;;;104.68;31.23;;;;;;;;;;5280884;28;20099;-68
2022/04/14 04:52:13;;;;;;;99.90;30.08;;;;;;;;;;5281205;28;20255;-68
2022/04/14 04:54:44;;;;;;;126.18;30.55;;;;;;;;;;5280939;28;20324;-68
2022/04/14 04:57:15;;;;;;;101.43;31.98;;;;;;;;;;5282015;28;20025;-68
2022/04/14 04:59:46;;;;;;;153.40;32.55;;;;;;;;;;5280477;28;20259;-67
2022/04/14 05:02:18;;;;;;;129.25;33.15;;;;;;;;;;5281678;28;20274;-69
2022/04/14 05:04:49;;;;;;;153.85;33.83;;;;;;;;;;5281201;28;20279;-68
2022/04/14 05:07:20;;;;;;;156.68;32.83;;;;;;;;;;5280549;28;20486;-68
2022/04/14 05:09:51;;;;;;;122.05;32.40;;;;;;;;;;5281585;28;20278;-67
2022/04/14 05:12:22;;;;;;;115.88;32.88;;;;;;;;;;5280178;28;20298;-68
2022/04/14 05:14:53;;;;;;;96.93;30.45;;;;;;;;;;5281408;28;20024;-68
2022/04/14 05:17:25;;;;;;;89.64;29.60;;;;;;;;;;5280683;28;20048;-69
2022/04/14 05:19:56;;;;;;;88.63;30.67;;;;;;;;;;5280581;28;20032;-69
2022/04/14 05:22:27;;;;;;;83.95;30.90;;;;;;;;;;5281448;28;20463;-69
2022/04/14 05:24:58;;;;;;;82.93;30.23;;;;;;;;;;5280240;28;20024;-69
2022/04/14 05:27:29;;;;;;;73.60;29.92;;;;;;;;;;5279853;28;20502;-69
2022/04/14 05:30:01;;;;;;;56.75;30.92;;;;;;;;;;5281190;28;20099;-69
2022/04/14 05:32:32;;;;;;;56.58;29.05;;;;;;;;;;5280506;28;20270;-69
2022/04/14 05:35:03;;;;;;;52.53;29.20;;;;;;;;;;5280327;28;20339;-69
2022/04/14 05:37:35;;;;;;;49.90;30.15;;;;;;;;;;5280055;28;20289;-69
2022/04/14 05:40:08;;;;;;;46.33;30.17;;;;;;;;;;5281026;28;20017;-69
2022/04/14 05:42:45;;;;;;;47.70;30.13;;;;;;;;;;5279494;28;20039;-69
2022/04/14 05:45:16;;;;;;;45.00;29.52;;;;;;;;;;5281338;28;20142;-69
2022/04/14 05:47:48;;;;;;;41.78;28.70;;;;;;;;;;5279705;28;20489;-70
2022/04/14 05:50:20;;;;;;;34.30;30.05;;;;;;;;;;5280567;28;20044;-68
2022/04/14 05:52:51;;;;;;;35.67;28.67;;;;;;;;;;5280624;28;20021;-68
2022/04/14 05:55:22;;;;;;;32.92;28.17;;;;;;;;;;5279570;28;20405;-68
2022/04/14 05:57:53;;;;;;;31.85;28.38;;;;;;;;;;5281067;28;20378;-67
2022/04/14 06:00:24;;;;;;;30.83;27.42;;;;;;;;;;5280514;28;20043;-68
2022/04/14 06:02:56;;;;;;;31.23;27.92;;;;;;;;;;5280006;28;20033;-68
2022/04/14 06:05:28;;;;;;;31.08;27.88;;;;;;;;;;5280158;28;20275;-68
2022/04/14 06:08:00;;;;;;;27.70;24.85;;;;;;;;;;5284115;28;20046;-68
2022/04/14 06:10:31;;;;;;;28.40;25.63;;;;;;;;;;5283235;28;20028;-69
2022/04/14 06:13:03;;;;;;;29.38;26.00;;;;;;;;;;5284391;28;20044;-68
2022/04/14 06:15:34;;;;;;;27.70;24.80;;;;;;;;;;5283246;28;20020;-68
2022/04/14 06:18:05;;;;;;;28.00;25.13;;;;;;;;;;5284267;28;20024;-68
2022/04/14 06:20:36;;;;;;;26.05;23.45;;;;;;;;;;5283538;28;20302;-68
2022/04/14 06:23:08;;;;;;;24.83;22.35;;;;;;;;;;5283431;28;20382;-70
2022/04/14 06:25:39;;;;;;;25.58;22.98;;;;;;;;;;5283550;28;20271;-68
2022/04/14 06:28:11;;;;;;;25.88;23.17;;;;;;;;;;5283976;28;20395;-69
2022/04/14 06:30:42;;;;;;;24.75;22.25;;;;;;;;;;5282658;28;20753;-69
2022/04/14 06:33:15;;;;;;;25.23;22.15;;;;;;;;;;5284180;28;20454;-68
2022/04/14 06:35:46;;;;;;;23.13;20.83;;;;;;;;;;5283461;28;20017;-68
2022/04/14 06:38:19;;;;;;;21.52;19.40;;;;;;;;;;5283191;28;20095;-67
2022/04/14 06:40:50;;;;;;;21.92;19.67;;;;;;;;;;5283418;28;20015;-67
2022/04/14 06:43:23;;;;;;;21.98;19.80;;;;;;;;;;5283231;28;20033;-68
2022/04/14 06:45:54;;;;;;;20.52;18.27;;;;;;;;;;5283214;28;20595;-68
2022/04/14 06:48:25;;;;;;;21.40;19.40;;;;;;;;;;5283402;28;20189;-68
2022/04/14 06:50:59;;;;;;;20.98;18.92;;;;;;;;;;5283097;28;20020;-67
2022/04/14 06:53:31;;;;;;;19.65;17.75;;;;;;;;;;5282802;28;20768;-68
2022/04/14 06:56:02;;;;;;;18.00;16.20;;;;;;;;;;5283723;28;20046;-67
2022/04/14 06:58:35;;;;;;;15.80;14.27;;;;;;;;;;5281974;28;20028;-66
2022/04/14 07:01:07;;;;;;;15.57;14.07;;;;;;;;;;5283181;28;20042;-67
2022/04/14 07:03:38;;;;;;;14.55;13.25;;;;;;;;;;5282822;28;20062;-69
2022/04/14 07:06:09;;;;;;;14.77;13.20;;;;;;;;;;5282722;28;20107;-68
2022/04/14 07:08:40;;;;;;;15.07;13.43;;;;;;;;;;5282978;28;20263;-68
2022/04/14 07:11:11;;;;;;;15.13;13.38;;;;;;;;;;5283475;28;20074;-68
2022/04/14 07:13:42;;;;;;;14.88;13.27;;;;;;;;;;5281826;28;20291;-68
2022/04/14 07:16:13;;;;;;;13.85;12.45;;;;;;;;;;5283318;28;20013;-68
2022/04/14 07:18:45;;;;;;;14.63;13.13;;;;;;;;;;5280574;28;20302;-72
2022/04/14 07:21:16;;;;;;;13.85;12.55;;;;;;;;;;5283304;28;20017;-67
2022/04/14 07:23:47;;;;;;;15.93;13.63;;;;;;;;;;5282411;28;20021;-68
2022/04/14 07:26:18;;;;;;;15.68;12.70;;;;;;;;;;5281953;28;20394;-68
2022/04/14 07:28:49;;;;;;;13.75;12.35;;;;;;;;;;5282798;28;20103;-68
2022/04/14 07:31:21;;;;;;;14.13;12.63;;;;;;;;;;5282675;28;20031;-68
2022/04/14 07:33:52;;;;;;;14.23;11.73;;;;;;;;;;5282178;28;20622;-68
2022/04/14 07:36:23;;;;;;;14.15;12.52;;;;;;;;;;5282301;28;20306;-69
2022/04/14 07:38:54;;;;;;;13.18;11.77;;;;;;;;;;5282868;28;20013;-68
2022/04/14 07:41:26;;;;;;;11.95;10.75;;;;;;;;;;5281347;28;20055;-68
2022/04/14 07:43:58;;;;;;;12.15;10.90;;;;;;;;;;5282814;28;20032;-69
2022/04/14 07:46:30;;;;;;;12.13;10.93;;;;;;;;;;5282519;28;20013;-68
2022/04/14 07:49:01;;;;;;;12.00;10.80;;;;;;;;;;5281971;28;20032;-68
2022/04/14 07:51:32;;;;;;;15.38;9.73;;;;;;;;;;5281968;28;20456;-68
2022/04/14 07:54:03;;;;;;;11.13;9.35;;;;;;;;;;5282120;28;20048;-68
2022/04/14 07:56:35;;;;;;;10.48;8.65;;;;;;;;;;5281833;28;20151;-68
2022/04/14 07:59:06;;;;;;;9.32;8.30;;;;;;;;;;5282530;28;20020;-69
2022/04/14 08:01:37;;;;;;;11.00;9.70;;;;;;;;;;5281271;28;20540;-69
2022/04/14 08:04:08;;;;;;;9.30;8.05;;;;;;;;;;5282163;28;20293;-69
2022/04/14 08:06:39;;;;;;;9.55;8.60;;;;;;;;;;5281716;28;20051;-69
2022/04/14 08:09:10;;;;;;;9.03;8.00;;;;;;;;;;5281643;28;20024;-70
2022/04/14 08:11:42;;;;;;;9.93;8.77;;;;;;;;;;5281756;28;20385;-70
2022/04/14 08:14:13;;;;;;;8.27;7.28;;;;;;;;;;5282107;28;20043;-69
2022/04/14 08:16:44;;;;;;;9.43;7.27;;;;;;;;;;5280754;28;20025;-69
2022/04/14 08:19:16;;;;;;;9.90;8.00;;;;;;;;;;5282296;28;20266;-70
2022/04/14 08:21:47;;;;;;;9.65;8.68;;;;;;;;;;5281722;28;20531;-69
2022/04/14 08:24:18;;;;;;;8.88;7.90;;;;;;;;;;5280977;28;20032;-69
2022/04/14 08:26:51;;;;;;;8.30;7.50;;;;;;;;;;5281580;28;20031;-70
2022/04/14 08:29:22;;;;;;;9.10;8.18;;;;;;;;;;5280034;28;20024;-70
2022/04/14 08:31:53;;;;;;;11.32;8.10;;;;;;;;;;5281775;28;20033;-69
2022/04/14 08:34:25;;;;;;;8.73;7.77;;;;;;;;;;5281458;28;20360;-69
2022/04/14 08:36:56;;;;;;;7.95;7.25;;;;;;;;;;5281190;28;20270;-69
2022/04/14 08:39:29;;;;;;;7.47;6.70;;;;;;;;;;5281119;28;20025;-69
2022/04/14 08:42:08;;;;;;;7.22;6.53;;;;;;;;;;5281641;28;20019;-68
2022/04/14 08:44:44;;;;;;;7.70;6.90;;;;;;;;;;5280442;28;20055;-69
2022/04/14 08:47:16;;;;;;;7.95;7.15;;;;;;;;;;5282062;28;20021;-69
2022/04/14 08:49:48;;;;;;;10.45;9.05;;;;;;;;;;5281196;28;20075;-68
2022/04/14 08:52:20;;;;;;;10.05;9.15;;;;;;;;;;5280415;28;20027;-69
2022/04/14 08:54:52;;;;;;;9.07;7.80;;;;;;;;;;5281452;28;20095;-69
2022/04/14 08:57:24;;;;;;;7.65;6.90;;;;;;;;;;5280334;28;20013;-68
2022/04/14 08:59:56;;;;;;;8.63;7.50;;;;;;;;;;5281167;28;20023;-68
2022/04/14 09:02:28;;;;;;;8.15;5.60;;;;;;;;;;5280521;28;20420;-70
2022/04/14 09:04:59;;;;;;;6.35;5.07;;;;;;;;;;5280297;28;20031;-68
2022/04/14 09:07:30;;;;;;;7.07;4.47;;;;;;;;;;5281130;28;20020;-69
2022/04/14 09:10:04;;;;;;;7.60;4.97;;;;;;;;;;5281823;28;20467;-69
2022/04/14 09:12:35;;;;;;;6.28;4.60;;;;;;;;;;5279892;28;20016;-69
2022/04/14 09:15:07;;;;;;;6.72;4.47;;;;;;;;;;5281519;28;20016;-68
2022/04/14 09:17:38;;;;;;;5.22;3.90;;;;;;;;;;5281166;28;20090;-69
2022/04/14 09:20:31;;;;;;;7.15;4.10;;;;;;;;;;5280574;28;20115;-69
2022/04/14 09:23:09;;;;;;;5.72;4.95;;;;;;;;;;5264463;28;20025;-69
2022/04/14 09:25:40;;;;;;;6.70;4.55;;;;;;;;;;5279833;28;20047;-69
2022/04/14 09:28:13;;;;;;;8.27;5.90;;;;;;;;;;5281479;28;20016;-69
2022/04/14 09:30:59;;;;;;;4.97;4.18;;;;;;;;;;5273875;28;20013;-68
2022/04/14 09:33:31;;;;;;;6.93;4.78;;;;;;;;;;5279072;28;20051;-68
2022/04/14 09:36:04;;;;;;;5.57;3.92;;;;;;;;;;5280735;28;20036;-69
2022/04/14 09:38:52;;;;;;;6.15;4.18;;;;;;;;;;5280371;28;20063;-68
2022/04/14 09:41:23;;;;;;;;;;;;;;;;;;5280455;28;20012;-68
2022/04/14 09:43:55;;;;;;;6.53;3.63;;;;;;;;;;5285017;28;19918;-68
2022/04/14 09:46:26;;;;;;;5.28;3.25;;;;;;;;;;5283851;28;20051;-68
2022/04/14 09:48:58;;;;;;;6.38;3.60;;;;;;;;;;5285648;28;20343;-68
2022/04/14 09:51:30;;;;;;;5.07;2.90;;;;;;;;;;5284760;28;20021;-68
2022/04/14 09:54:04;;;;;;;6.78;3.40;;;;;;;;;;5284412;28;20077;-68
2022/04/14 09:56:39;;;;;;;4.40;3.05;;;;;;;;;;5284241;28;20020;-68
2022/04/14 09:59:11;;;;;;;5.85;3.35;;;;;;;;;;5285204;28;20021;-68
2022/04/14 10:01:43;;;;;;;5.28;3.17;;;;;;;;;;5283901;28;20425;-68
2022/04/14 10:04:27;;;;;;;4.10;3.20;;;;;;;;;;5284997;28;20032;-68
2022/04/14 10:07:15;;;;;;;7.05;3.65;;;;;;;;;;5284416;28;20017;-68
2022/04/14 10:09:48;;;;;;;5.38;3.83;;;;;;;;;;5283620;28;20025;-68
2022/04/14 10:12:19;;;;;;;4.65;3.42;;;;;;;;;;5284275;28;20190;-67
2022/04/14 10:14:56;;;;;;;6.28;3.33;;;;;;;;;;5283462;28;20866;-68
2022/04/14 10:17:28;;;;;;;4.90;2.95;;;;;;;;;;5284071;28;20020;-68
2022/04/14 10:19:59;;;;;;;3.33;1.83;;;;;;;;;;5284502;28;20107;-67
2022/04/14 10:22:31;;;;;;;4.30;2.30;;;;;;;;;;5283101;28;20482;-68
2022/04/14 10:25:02;;;;;;;5.57;2.63;;;;;;;;;;5284453;28;20017;-67
2022/04/14 10:27:35;;;;;;;4.22;2.30;;;;;;;;;;5283772;28;20029;-68
2022/04/14 10:30:07;;;;;;;5.97;1.92;;;;;;;;;;5283639;28;20027;-68
2022/04/14 10:32:40;;;;;;;4.72;1.52;;;;;;;;;;5283828;28;20029;-68
2022/04/14 10:35:12;;;;;;;9.52;1.98;;;;;;;;;;5283669;28;20036;-67
2022/04/14 10:37:45;;;;;;;4.28;2.35;;;;;;;;;;5282208;28;20467;-67
2022/04/14 10:40:16;;;;;;;10.32;2.42;;;;;;;;;;5282976;28;20039;-68
2022/04/14 10:42:52;;;;;;;3.67;1.80;;;;;;;;;;5282381;28;20032;-68
2022/04/14 10:45:23;;;;;;;2.85;1.92;;;;;;;;;;5283631;28;20024;-68
2022/04/14 10:47:56;;;;;;;2.88;1.35;;;;;;;;;;5284353;28;20368;-67
2022/04/14 10:50:36;;;;;;;3.75;1.40;;;;;;;;;;5282837;28;20409;-68
2022/04/14 10:53:08;;;;;;;3.95;1.85;;;;;;;;;;5283691;28;20352;-68
2022/04/14 10:55:41;;;;;;;3.05;1.10;;;;;;;;;;5283605;28;20095;-68
2022/04/14 10:58:31;;;;;;;4.28;1.17;;;;;;;;;;5282728;28;20048;-68
2022/04/14 11:01:02;;;;;;;3.15;1.33;;;;;;;;;;5283181;28;20020;-67
2022/04/14 11:03:47;;;;;;;2.28;1.27;;;;;;;;;;5282932;28;20036;-67
2022/04/14 11:06:37;;;;;;;2.50;0.98;;;;;;;;;;5283561;28;20021;-67
2022/04/14 11:09:28;;;;;;;3.97;1.30;;;;;;;;;;5283839;28;20483;-67
2022/04/14 11:12:00;;;;;;;3.15;1.60;;;;;;;;;;5282781;28;20017;-67
2022/04/14 11:14:34;;;;;;;5.25;1.35;;;;;;;;;;5282789;28;20151;-68
2022/04/14 11:17:05;;;;;;;3.97;1.05;;;;;;;;;;5283498;28;20074;-68
2022/04/14 11:19:36;;;;;;;4.10;1.07;;;;;;;;;;5282003;28;20463;-68
2022/04/14 11:22:08;;;;;;;3.38;0.70;;;;;;;;;;5283265;28;20265;-68
2022/04/14 11:24:40;;;;;;;1.80;0.65;;;;;;;;;;5282941;28;20471;-67
2022/04/14 11:27:15;;;;;;;3.85;0.68;;;;;;;;;;5282772;28;20012;-68
2022/04/14 11:29:47;;;;;;;3.33;0.98;;;;;;;;;;5282787;28;20020;-68
2022/04/14 11:32:35;;;;;;;2.42;0.80;;;;;;;;;;5282318;28;20027;-68
2022/04/14 11:35:13;;;;;;;1.67;0.52;;;;;;;;;;5283155;28;20044;-68
2022/04/14 11:37:45;;;;;;;1.37;0.60;;;;;;;;;;5282722;28;20021;-68
2022/04/14 11:40:21;;;;;;;1.88;0.70;;;;;;;;;;5282553;28;20262;-69
2022/04/14 11:42:53;;;;;;;1.88;0.65;;;;;;;;;;5282934;28;20055;-68
2022/04/14 11:45:27;;;;;;;3.45;0.75;;;;;;;;;;5280956;28;20028;-69
2022/04/14 11:48:03;;;;;;;1.88;0.90;;;;;;;;;;5281266;28;20125;-69
2022/04/14 11:50:35;;;;;;;3.67;1.10;;;;;;;;;;5281876;28;20083;-69
2022/04/14 11:53:06;;;;;;;3.20;0.80;;;;;;;;;;5281702;28;20345;-69
2022/04/14 11:55:41;;;;;;;4.32;0.90;;;;;;;;;;5282050;28;20082;-68
2022/04/14 11:58:13;;;;;;;2.72;0.65;;;;;;;;;;5282942;28;20029;-68
2022/04/14 12:00:48;;;;;;;4.22;0.73;;;;;;;;;;5281404;28;20071;-68
2022/04/14 12:03:31;;;;;;;2.13;0.70;;;;;;;;;;5282334;28;20058;-69
2022/04/14 12:06:06;;;;;;;3.28;0.85;;;;;;;;;;5282073;28;20029;-69
2022/04/14 12:08:38;;;;;;;3.20;0.70;;;;;;;;;;5281281;28;20451;-69
2022/04/14 12:11:11;;;;;;;2.20;0.90;;;;;;;;;;5282782;28;20047;-68
2022/04/14 12:13:42;;;;;;;4.03;0.70;;;;;;;;;;5281671;28;20094;-68
2022/04/14 12:16:14;;;;;;;2.72;0.90;;;;;;;;;;5281674;28;20008;-69
2022/04/14 12:18:51;;;;;;;2.45;0.70;;;;;;;;;;5281966;28;20532;-68
2022/04/14 12:21:23;;;;;;;7.00;1.17;;;;;;;;;;5281237;28;20012;-69
2022/04/14 12:23:58;;;;;;;7.78;1.58;;;;;;;;;;5282276;28;20104;-68
2022/04/14 12:26:30;;;;;;;10.05;1.30;;;;;;;;;;5281771;28;20395;-69
2022/04/14 12:29:01;;;;;;;6.55;1.67;;;;;;;;;;5281590;28;20012;-69
2022/04/14 12:31:32;;;;;;;6.45;1.45;;;;;;;;;;5281608;28;20100;-69
2022/04/14 12:34:08;;;;;;;7.75;1.30;;;;;;;;;;5282270;28;20352;-69
2022/04/14 12:36:39;;;;;;;8.48;2.00;;;;;;;;;;5280845;28;20035;-69
2022/04/14 12:39:18;;;;;;;4.97;1.92;;;;;;;;;;5281559;28;20020;-70
2022/04/14 12:41:49;;;;;;;;;;;;;;;;;;5282397;28;20493;-69
2022/04/14 12:44:20;;;;;;;8.33;2.00;;;;;;;;;;5281069;28;19958;-69
2022/04/14 12:46:52;;;;;;;5.47;1.65;;;;;;;;;;5281777;28;20281;-68
2022/04/14 12:49:31;;;;;;;7.03;1.92;;;;;;;;;;5280739;28;20031;-69
2022/04/14 12:52:07;;;;;;;6.63;2.17;;;;;;;;;;5282136;28;20446;-68
2022/04/14 12:54:45;;;;;;;5.85;1.83;;;;;;;;;;5281664;28;20052;-68
2022/04/14 12:57:18;;;;;;;10.57;3.08;;;;;;;;;;5283203;28;20074;-68
2022/04/14 13:00:04;;;;;;;5.72;2.10;;;;;;;;;;5288086;28;20021;-69
2022/04/14 13:02:37;;;;;;;4.80;1.75;;;;;;;;;;5286715;28;20095;-68
2022/04/14 13:05:12;;;;;;;10.65;1.90;;;;;;;;;;5282922;28;20025;-70
2022/04/14 13:07:51;;;;;;;5.22;1.63;;;;;;;;;;5281105;28;20544;-69
2022/04/14 13:10:36;;;;;;;6.43;1.85;;;;;;;;;;5280675;28;20036;-69
2022/04/14 13:13:09;;;;;;;5.55;2.30;;;;;;;;;;5281658;28;20549;-69
2022/04/14 13:15:40;;;;;;;5.93;3.13;;;;;;;;;;5282271;28;20077;-69
2022/04/14 13:18:13;;;;;;;9.17;3.10;;;;;;;;;;5284879;28;20020;-69
2022/04/14 13:20:44;;;;;;;10.07;3.53;;;;;;;;;;5287549;28;20281;-69
2022/04/14 13:23:18;;;;;;;5.93;3.45;;;;;;;;;;5288241;28;20115;-68
2022/04/14 13:25:50;;;;;;;7.10;3.17;;;;;;;;;;5286796;28;20033;-68
2022/04/14 13:28:21;;;;;;;5.38;2.97;;;;;;;;;;5288077;28;20462;-69
2022/04/14 13:30:52;;;;;;;8.40;2.28;;;;;;;;;;5287598;28;20035;-68
2022/04/14 13:33:23;;;;;;;6.40;1.77;;;;;;;;;;5286458;28;20463;-68
2022/04/14 13:35:54;;;;;;;12.15;2.35;;;;;;;;;;5287948;28;20023;-68
2022/04/14 13:38:25;;;;;;;7.57;2.00;;;;;;;;;;5286879;28;20067;-68
2022/04/14 13:40:56;;;;;;;4.40;1.80;;;;;;;;;;5287122;28;20013;-68
2022/04/14 13:43:28;;;;;;;6.65;2.25;;;;;;;;;;5286431;28;20074;-70
2022/04/14 13:45:59;;;;;;;5.93;2.67;;;;;;;;;;5286703;28;20547;-69
2022/04/14 13:48:30;;;;;;;6.97;3.72;;;;;;;;;;5285100;28;20035;-70
2022/04/14 13:51:01;;;;;;;10.52;4.63;;;;;;;;;;5285480;28;20091;-70
2022/04/14 13:53:33;;;;;;;5.47;2.63;;;;;;;;;;5283800;28;20024;-70
2022/04/14 13:56:05;;;;;;;5.60;1.67;;;;;;;;;;5285348;28;20020;-70
2022/04/14 13:58:36;;;;;;;9.30;2.03;;;;;;;;;;5284635;28;20025;-69
2022/04/14 14:01:07;;;;;;;6.18;1.10;;;;;;;;;;5284754;28;20325;-70
2022/04/14 14:03:38;;;;;;;5.07;1.60;;;;;;;;;;5284686;28;20033;-69
2022/04/14 14:06:10;;;;;;;6.18;1.88;;;;;;;;;;5285386;28;20274;-69
2022/04/14 14:08:41;;;;;;;5.40;1.92;;;;;;;;;;5283982;28;20028;-68
2022/04/14 14:11:12;;;;;;;6.97;2.28;;;;;;;;;;5284956;28;20043;-68
2022/04/14 14:13:44;;;;;;;5.97;2.20;;;;;;;;;;5283594;28;20072;-69
2022/04/14 14:16:15;;;;;;;5.93;2.10;;;;;;;;;;5285051;28;20051;-69
2022/04/14 14:18:47;;;;;;;6.13;3.28;;;;;;;;;;5284139;28;20017;-69
2022/04/14 14:21:18;;;;;;;6.88;3.05;;;;;;;;;;5283534;28;20020;-69
2022/04/14 14:23:50;;;;;;;9.98;3.50;;;;;;;;;;5284645;28;20029;-69
2022/04/14 14:26:21;;;;;;;8.93;3.08;;;;;;;;;;5284228;28;20044;-69
2022/04/14 14:28:52;;;;;;;4.80;2.72;;;;;;;;;;5283241;28;20016;-69
2022/04/14 14:31:25;;;;;;;6.57;3.10;;;;;;;;;;5283974;28;20028;-69
2022/04/14 14:33:56;;;;;;;6.22;3.38;;;;;;;;;;5284309;28;20020;-69
2022/04/14 14:36:27;;;;;;;5.90;4.90;;;;;;;;;;5282640;28;20027;-69
2022/04/14 14:38:58;;;;;;;6.70;6.00;;;;;;;;;;5284412;28;20685;-69
2022/04/14 14:41:30;;;;;;;5.17;4.57;;;;;;;;;;5283581;28;20279;-68
2022/04/14 14:44:01;;;;;;;5.43;4.93;;;;;;;;;;5283263;28;20287;-69
2022/04/14 14:46:32;;;;;;;5.30;4.77;;;;;;;;;;5283609;28;20017;-68
2022/04/14 14:49:04;;;;;;;5.70;4.97;;;;;;;;;;5283235;28;20274;-68
2022/04/14 14:51:35;;;;;;;6.38;5.32;;;;;;;;;;5283804;28;20800;-68
2022/04/14 14:54:06;;;;;;;4.93;3.17;;;;;;;;;;5284017;28;20027;-69
2022/04/14 14:56:37;;;;;;;4.88;3.28;;;;;;;;;;5264775;28;20348;-69
2022/04/14 14:59:16;;;;;;;3.08;2.50;;;;;;;;;;5283997;28;20099;-68